Lima Center, Michigan
Current Conditions -  °F | °C
As of 10:36 PM on Saturday 24 Jan 2015 (Local Time) from KARB Reporting Station
Overcast Overcast  
Wind Chill: 28°   Ceiling: 3200
Heat Index: 34°   Visibility: 7mi
Dew Point: 32°   Wind: 7mph
Humidity: 92%   Direction: 250°WSW
Pressure: 29.67"   Gusts: NA
Location:  42.3129°N, 84.0322°W
Report Text: KARB 250336Z AUTO 25006KT 7SM SCT015 OVC032 01/00 A2967 RMK AO2 UPB00E28 P0000 T00110000
Loading
Personal Weather Stations






























Interactive Weather Map New forecast layout! Learn more

10-Day Weather Forecast

Advertisements
Track Severe Weather on mobile